createdAt,value
2023-02-02T00:02:57.665Z,99482.63
2023-02-02T00:06:05.335Z,99479.23
2023-02-02T00:09:15.289Z,99475.70
2023-02-02T00:12:20.177Z,99473.27
2023-02-02T00:15:26.496Z,99477.16
2023-02-02T00:18:26.492Z,99475.88
2023-02-02T00:21:25.338Z,99477.59
2023-02-02T00:24:32.594Z,99477.81
2023-02-02T00:27:37.492Z,99479.23
2023-02-02T00:30:43.831Z,99472.57
2023-02-02T00:33:51.538Z,99469.95
2023-02-02T00:36:58.302Z,99470.65
2023-02-02T00:40:04.362Z,99461.98
2023-02-02T00:43:11.056Z,99458.01
2023-02-02T00:46:18.132Z,99460.02
2023-02-02T00:49:24.779Z,99455.23
2023-02-02T00:52:31.328Z,99464.11
2023-02-02T00:55:38.445Z,99461.55
2023-02-02T00:58:44.647Z,99455.16
2023-02-02T01:01:50.602Z,99453.11
2023-02-02T01:04:56.829Z,99451.92
2023-02-02T01:07:58.575Z,99454.66
2023-02-02T01:11:05.047Z,99458.42
2023-02-02T01:14:10.664Z,99452.11
2023-02-02T01:17:16.561Z,99452.61
2023-02-02T01:20:23.064Z,99449.55
2023-02-02T01:23:31.230Z,99442.88
2023-02-02T01:26:37.236Z,99444.52
2023-02-02T01:29:43.411Z,99450.51
2023-02-02T01:32:48.823Z,99452.50
2023-02-02T01:36:06.707Z,99448.12
2023-02-02T01:39:12.739Z,99443.94
2023-02-02T01:42:17.866Z,99450.83
2023-02-02T01:45:33.823Z,99432.36
2023-02-02T01:48:44.616Z,99434.22
2023-02-02T01:52:09.257Z,99426.31
2023-02-02T01:55:22.275Z,99429.33
2023-02-02T01:58:39.070Z,99440.66
2023-02-02T02:01:45.389Z,99439.81
2023-02-02T02:04:50.871Z,99449.55
2023-02-02T02:07:57.093Z,99454.66
2023-02-02T02:10:56.279Z,99455.23
2023-02-02T02:14:21.358Z,99460.13
2023-02-02T02:17:53.112Z,99455.66
2023-02-02T02:21:37.119Z,99450.84
2023-02-02T02:25:25.148Z,99438.64
2023-02-02T02:28:51.496Z,99443.88
2023-02-02T02:32:39.484Z,99446.57
2023-02-02T02:36:13.034Z,99438.04
2023-02-02T02:39:33.473Z,99438.05
2023-02-02T02:42:41.992Z,99442.03
2023-02-02T02:45:47.832Z,99441.48
2023-02-02T02:48:52.959Z,99449.30
2023-02-02T02:52:08.927Z,99458.44
2023-02-02T02:55:14.628Z,99460.05
2023-02-02T02:58:27.866Z,99463.41
2023-02-02T03:01:50.724Z,99464.25
2023-02-02T03:05:09.750Z,99476.05
2023-02-02T03:08:24.332Z,99476.63
2023-02-02T03:11:29.617Z,99486.56
2023-02-02T03:14:35.628Z,99489.38
2023-02-02T03:17:43.412Z,99491.98
2023-02-02T03:20:49.002Z,99494.48
2023-02-02T03:23:55.675Z,99496.55
2023-02-02T03:27:01.550Z,99486.48
2023-02-02T03:30:07.535Z,99499.97
2023-02-02T03:33:13.076Z,99493.22
2023-02-02T03:36:19.670Z,99489.76
2023-02-02T03:39:26.182Z,99495.12
2023-02-02T03:42:32.747Z,99493.35
2023-02-02T03:45:42.473Z,99499.36
2023-02-02T03:48:53.015Z,99499.39
2023-02-02T03:51:59.076Z,99504.83
2023-02-02T03:55:05.492Z,99502.62
2023-02-02T03:58:11.136Z,99509.93
2023-02-02T04:01:24.362Z,99505.08
2023-02-02T04:04:29.925Z,99507.51
2023-02-02T04:07:36.343Z,99511.28
2023-02-02T04:10:42.071Z,99510.12
2023-02-02T04:13:49.787Z,99510.06
2023-02-02T04:16:57.341Z,99516.44
2023-02-02T04:20:04.461Z,99513.05
2023-02-02T04:23:11.093Z,99516.61
2023-02-02T04:26:17.531Z,99515.70
2023-02-02T04:29:24.475Z,99521.81
2023-02-02T04:32:31.029Z,99520.69
2023-02-02T04:35:37.398Z,99522.45
2023-02-02T04:38:42.805Z,99522.70
2023-02-02T04:41:48.681Z,99526.45
2023-02-02T04:44:54.401Z,99521.28
2023-02-02T04:48:01.060Z,99524.98
2023-02-02T04:51:15.706Z,99523.56
2023-02-02T04:54:22.577Z,99529.17
2023-02-02T04:57:27.368Z,99534.21
2023-02-02T05:00:32.837Z,99542.68
2023-02-02T05:03:38.200Z,99536.27
2023-02-02T05:06:43.933Z,99549.98
2023-02-02T05:09:43.768Z,99546.11
2023-02-02T05:12:36.237Z,99550.67
2023-02-02T05:15:41.308Z,99552.72
2023-02-02T05:18:47.966Z,99554.48
2023-02-02T05:21:56.344Z,99554.73
2023-02-02T05:25:02.634Z,99569.34
2023-02-02T05:28:08.357Z,99571.03
2023-02-02T05:31:14.840Z,99567.49
2023-02-02T05:34:20.408Z,99576.02
2023-02-02T05:37:27.778Z,99564.55
2023-02-02T05:40:34.309Z,99569.73
2023-02-02T05:43:44.124Z,99581.25
2023-02-02T05:46:45.408Z,99569.63
2023-02-02T05:49:51.998Z,99579.02
2023-02-02T05:52:58.555Z,99580.17
2023-02-02T05:56:04.714Z,99584.16
2023-02-02T05:59:11.758Z,99587.93
2023-02-02T06:02:17.140Z,99589.14
2023-02-02T06:05:23.364Z,99589.77
2023-02-02T06:08:28.661Z,99590.32
2023-02-02T06:11:34.216Z,99597.80
2023-02-02T06:14:40.236Z,99602.39
2023-02-02T06:17:45.419Z,99608.94
2023-02-02T06:20:53.714Z,99599.27
2023-02-02T06:24:00.604Z,99612.00
2023-02-02T06:27:09.365Z,99606.41
2023-02-02T06:30:21.399Z,99614.86
2023-02-02T06:33:26.723Z,99618.84
2023-02-02T06:36:35.244Z,99612.34
2023-02-02T06:39:41.109Z,99616.49
2023-02-02T06:42:46.458Z,99614.95
2023-02-02T06:45:52.487Z,99618.56
2023-02-02T06:48:57.994Z,99606.28
2023-02-02T06:52:03.611Z,99608.26
2023-02-02T06:55:11.505Z,99602.34
2023-02-02T06:58:18.031Z,99607.84
2023-02-02T07:01:26.781Z,99616.65
2023-02-02T07:04:34.899Z,99617.30
2023-02-02T07:07:45.097Z,99611.84
2023-02-02T07:11:11.582Z,99618.17
2023-02-02T07:14:14.959Z,99623.69
2023-02-02T07:17:20.053Z,99625.89
2023-02-02T07:20:27.792Z,99631.47
2023-02-02T07:23:32.969Z,99630.67
2023-02-02T07:26:38.711Z,99634.63
2023-02-02T07:29:47.013Z,99640.33
2023-02-02T07:32:53.642Z,99636.83
2023-02-02T07:36:01.343Z,99636.30
2023-02-02T07:39:10.574Z,99640.02
2023-02-02T07:42:17.854Z,99648.28
2023-02-02T07:45:27.224Z,99649.91
2023-02-02T07:48:30.888Z,99654.25
2023-02-02T07:51:38.260Z,99648.01
2023-02-02T07:54:43.417Z,99641.80
2023-02-02T07:57:49.188Z,99647.62
2023-02-02T08:00:55.755Z,99654.32
2023-02-02T08:04:02.002Z,99647.61
2023-02-02T08:07:07.681Z,99649.29
2023-02-02T08:10:16.370Z,99640.67
2023-02-02T08:13:24.819Z,99636.48
2023-02-02T08:16:29.927Z,99641.77
2023-02-02T08:19:35.695Z,99645.53
2023-02-02T08:22:50.646Z,99653.56
2023-02-02T08:25:57.670Z,99649.59
2023-02-02T08:29:09.802Z,99658.44
2023-02-02T08:32:16.541Z,99657.72
2023-02-02T08:35:21.426Z,99661.39
2023-02-02T08:38:27.007Z,99668.46
2023-02-02T08:41:36.495Z,99667.08
2023-02-02T08:45:59.538Z,99671.84
2023-02-02T08:47:56.005Z,99665.52
2023-02-02T08:50:56.050Z,99664.42
2023-02-02T08:54:02.257Z,99666.88
2023-02-02T08:57:07.040Z,99661.76
2023-02-02T09:00:13.818Z,99653.31
2023-02-02T09:03:19.607Z,99659.78
2023-02-02T09:06:33.327Z,99654.19
2023-02-02T09:09:38.883Z,99651.47
2023-02-02T09:12:45.111Z,99652.55
2023-02-02T09:15:50.520Z,99652.57
2023-02-02T09:18:56.438Z,99651.24
2023-02-02T09:22:04.008Z,99650.00
2023-02-02T09:25:09.632Z,99645.47
2023-02-02T09:28:15.192Z,99644.80
2023-02-02T09:31:20.395Z,99636.91
2023-02-02T09:34:27.886Z,99640.33
2023-02-02T09:37:32.952Z,99638.98
2023-02-02T09:40:38.811Z,99641.33
2023-02-02T09:44:13.392Z,99642.61
2023-02-02T09:48:02.166Z,99648.60
2023-02-02T09:51:12.589Z,99650.58
2023-02-02T09:54:21.819Z,99646.69
2023-02-02T09:57:35.327Z,99649.83
2023-02-02T10:00:49.845Z,99657.66
2023-02-02T10:04:18.373Z,99653.98
2023-02-02T10:07:29.958Z,99655.73
2023-02-02T10:10:52.131Z,99644.98
2023-02-02T10:14:00.666Z,99652.69
2023-02-02T10:17:08.660Z,99658.03
2023-02-02T10:20:31.274Z,99661.55
2023-02-02T10:23:54.657Z,99660.19
2023-02-02T10:27:20.255Z,99658.92
2023-02-02T10:30:34.476Z,99656.50
2023-02-02T10:33:55.049Z,99647.31
2023-02-02T10:37:09.176Z,99653.27
2023-02-02T10:40:50.793Z,99646.10
2023-02-02T10:44:20.444Z,99645.55
2023-02-02T10:47:30.053Z,99633.38
2023-02-02T10:50:35.895Z,99638.21
2023-02-02T10:53:43.643Z,99640.39
2023-02-02T10:56:59.093Z,99638.63
2023-02-02T11:00:31.998Z,99638.00
2023-02-02T11:03:47.363Z,99636.77
2023-02-02T11:07:01.434Z,99635.08
2023-02-02T11:10:06.582Z,99639.27
2023-02-02T11:13:12.563Z,99634.09
2023-02-02T11:16:43.183Z,99637.82
2023-02-02T11:19:46.493Z,99635.25
2023-02-02T11:22:52.329Z,99636.56
2023-02-02T11:25:57.933Z,99632.36
2023-02-02T11:29:05.421Z,99637.88
2023-02-02T11:32:10.273Z,99638.89
2023-02-02T11:35:36.646Z,99631.19
2023-02-02T11:38:42.460Z,99641.94
2023-02-02T11:41:48.851Z,99637.03
2023-02-02T11:44:54.841Z,99635.34
2023-02-02T11:48:00.799Z,99634.53
2023-02-02T11:51:09.992Z,99623.98
2023-02-02T11:54:36.500Z,99631.36
2023-02-02T11:57:42.726Z,99629.62
2023-02-02T12:00:47.830Z,99634.00
2023-02-02T12:03:54.067Z,99642.70
2023-02-02T12:07:00.519Z,99652.60
2023-02-02T12:10:05.394Z,99646.61
2023-02-02T12:13:33.044Z,99647.89
2023-02-02T12:17:02.175Z,99652.20
2023-02-02T12:20:27.604Z,99657.91
2023-02-02T12:23:40.583Z,99662.20
2023-02-02T12:26:50.858Z,99657.80
2023-02-02T12:30:19.338Z,99659.02
2023-02-02T12:34:01.648Z,99666.02
2023-02-02T12:37:40.936Z,99660.51
2023-02-02T12:41:02.327Z,99665.80
2023-02-02T12:44:23.675Z,99668.77
2023-02-02T12:47:50.652Z,99665.98
2023-02-02T12:51:33.474Z,99664.77
2023-02-02T12:54:52.497Z,99662.00
2023-02-02T12:58:27.112Z,99664.55
2023-02-02T13:01:49.114Z,99664.47
2023-02-02T13:05:35.814Z,99667.13
2023-02-02T13:09:20.374Z,99670.80
2023-02-02T13:12:26.953Z,99669.75
2023-02-02T13:15:33.474Z,99669.66
2023-02-02T13:18:31.264Z,99671.77
2023-02-02T13:21:26.234Z,99680.71
2023-02-02T13:24:13.095Z,99680.31
2023-02-02T13:27:06.830Z,99680.31
2023-02-02T13:30:01.598Z,99681.87
2023-02-02T13:32:54.376Z,99672.58
2023-02-02T13:36:20.164Z,99679.48
2023-02-02T13:39:43.210Z,99678.02
2023-02-02T13:43:07.681Z,99681.53
2023-02-02T13:46:41.746Z,99685.33
2023-02-02T13:49:58.053Z,99683.42
2023-02-02T13:53:21.733Z,99687.16
2023-02-02T13:57:12.521Z,99693.90
2023-02-02T14:00:39.592Z,99698.06
2023-02-02T14:04:00.137Z,99697.08
2023-02-02T14:07:12.893Z,99697.67
2023-02-02T14:10:05.119Z,99698.55
2023-02-02T14:13:10.907Z,99705.79
2023-02-02T14:16:18.741Z,99703.14
2023-02-02T14:19:47.483Z,99703.42
2023-02-02T14:23:01.687Z,99704.66
2023-02-02T14:26:22.589Z,99708.31
2023-02-02T14:29:52.341Z,99704.66
2023-02-02T14:32:57.381Z,99704.70
2023-02-02T14:36:07.930Z,99710.37
2023-02-02T14:39:20.409Z,99713.56
2023-02-02T14:43:08.180Z,99712.23
2023-02-02T14:46:39.303Z,99720.28
2023-02-02T14:49:47.698Z,99719.28
2023-02-02T14:52:53.968Z,99719.02
2023-02-02T14:56:23.800Z,99723.30
2023-02-02T14:59:44.105Z,99727.98
2023-02-02T15:02:53.972Z,99724.50
2023-02-02T15:06:01.325Z,99738.25
2023-02-02T15:09:32.557Z,99737.43
2023-02-02T15:12:47.497Z,99740.69
2023-02-02T15:15:54.169Z,99742.33
2023-02-02T15:19:04.479Z,99749.33
2023-02-02T15:22:09.839Z,99751.86
2023-02-02T15:25:18.038Z,99752.53
2023-02-02T15:29:13.447Z,99753.91
2023-02-02T15:32:20.574Z,99762.22
2023-02-02T15:35:38.295Z,99761.84
2023-02-02T15:38:53.829Z,99759.60
2023-02-02T15:42:01.284Z,99765.56
2023-02-02T15:45:07.505Z,99765.86
2023-02-02T15:48:14.310Z,99772.14
2023-02-02T15:51:30.120Z,99772.69
2023-02-02T15:54:41.091Z,99775.24
2023-02-02T15:57:49.543Z,99774.04
2023-02-02T16:00:55.566Z,99770.80
2023-02-02T16:04:08.235Z,99771.55
2023-02-02T16:07:14.072Z,99777.23
2023-02-02T16:10:20.906Z,99781.04
2023-02-02T16:13:43.462Z,99786.08
2023-02-02T16:16:54.524Z,99790.11
2023-02-02T16:19:59.414Z,99792.28
2023-02-02T16:23:06.282Z,99791.94
2023-02-02T16:26:12.108Z,99798.69
2023-02-02T16:29:17.710Z,99796.83
2023-02-02T16:32:50.096Z,99802.62
2023-02-02T16:35:57.184Z,99809.11
2023-02-02T16:39:04.203Z,99807.96
2023-02-02T16:42:09.661Z,99800.50
2023-02-02T16:45:09.193Z,99813.06
2023-02-02T16:48:36.664Z,99807.48
2023-02-02T16:51:40.027Z,99810.27
2023-02-02T16:54:35.574Z,99810.09
2023-02-02T16:57:43.992Z,99811.66
2023-02-02T17:00:49.871Z,99810.80
2023-02-02T17:03:59.984Z,99809.84
2023-02-02T17:07:06.291Z,99812.53
2023-02-02T17:10:38.758Z,99803.53
2023-02-02T17:13:50.341Z,99810.83
2023-02-02T17:16:56.726Z,99810.28
2023-02-02T17:20:02.892Z,99807.52
2023-02-02T17:23:13.084Z,99813.27
2023-02-02T17:26:18.389Z,99820.52
2023-02-02T17:29:33.064Z,99812.36
2023-02-02T17:32:40.169Z,99814.73
2023-02-02T17:35:55.747Z,99814.62
2023-02-02T17:38:53.452Z,99820.55
2023-02-02T17:42:00.775Z,99819.64
2023-02-02T17:45:06.606Z,99823.72
2023-02-02T17:48:14.645Z,99825.39
2023-02-02T17:51:23.135Z,99828.22
2023-02-02T17:54:28.989Z,99832.12
2023-02-02T17:57:34.434Z,99823.39
2023-02-02T18:00:41.143Z,99829.65
2023-02-02T18:03:50.462Z,99831.47
2023-02-02T18:06:56.130Z,99837.42
2023-02-02T18:10:01.480Z,99838.02
2023-02-02T18:13:07.656Z,99839.86
2023-02-02T18:16:14.706Z,99844.64
2023-02-02T18:19:21.321Z,99842.29
2023-02-02T18:22:28.024Z,99848.48
2023-02-02T18:25:33.931Z,99853.40
2023-02-02T18:28:39.397Z,99850.78
2023-02-02T18:31:45.253Z,99848.83
2023-02-02T18:34:53.080Z,99856.95
2023-02-02T18:37:52.637Z,99855.41
2023-02-02T18:40:58.331Z,99856.00
2023-02-02T18:44:04.352Z,99849.45
2023-02-02T18:47:10.927Z,99843.69
2023-02-02T18:50:17.993Z,99855.28
2023-02-02T18:53:24.515Z,99857.72
2023-02-02T18:56:30.731Z,99851.88
2023-02-02T18:59:38.752Z,99854.92
2023-02-02T19:02:45.722Z,99855.30
2023-02-02T19:06:09.939Z,99860.23
2023-02-02T19:09:15.906Z,99856.41
2023-02-02T19:12:26.529Z,99854.93
2023-02-02T19:15:33.394Z,99853.29
2023-02-02T19:18:39.617Z,99854.73
2023-02-02T19:21:48.362Z,99858.13
2023-02-02T19:24:54.749Z,99862.42
2023-02-02T19:28:00.857Z,99860.69
2023-02-02T19:31:07.993Z,99864.70
2023-02-02T19:34:13.499Z,99862.34
2023-02-02T19:37:35.528Z,99868.20
2023-02-02T19:40:40.635Z,99867.08
2023-02-02T19:43:48.515Z,99868.30
2023-02-02T19:46:58.441Z,99867.45
2023-02-02T19:50:03.469Z,99877.59
2023-02-02T19:53:11.635Z,99873.31
2023-02-02T19:56:18.861Z,99881.36
2023-02-02T19:59:31.114Z,99879.50
2023-02-02T20:02:53.961Z,99875.88
2023-02-02T20:06:02.270Z,99885.72
2023-02-02T20:09:08.240Z,99885.52
2023-02-02T20:12:14.309Z,99883.04
2023-02-02T20:15:30.363Z,99885.54
2023-02-02T20:18:47.995Z,99880.40
2023-02-02T20:22:00.753Z,99884.69
2023-02-02T20:25:07.844Z,99884.78
2023-02-02T20:28:15.108Z,99887.39
2023-02-02T20:31:22.443Z,99886.17
2023-02-02T20:34:44.012Z,99885.06
2023-02-02T20:37:50.252Z,99881.59
2023-02-02T20:40:55.103Z,99889.14
2023-02-02T20:44:01.336Z,99888.18
2023-02-02T20:47:07.516Z,99883.34
2023-02-02T20:50:13.241Z,99883.34
2023-02-02T20:53:22.333Z,99882.86
2023-02-02T20:56:27.161Z,99881.84
2023-02-02T20:59:33.299Z,99880.94
2023-02-02T21:02:39.552Z,99881.14
2023-02-02T21:05:45.731Z,99884.45
2023-02-02T21:08:51.600Z,99883.14
2023-02-02T21:11:57.091Z,99880.76
2023-02-02T21:15:02.358Z,99885.07
2023-02-02T21:18:07.776Z,99893.62
2023-02-02T21:21:13.820Z,99896.32
2023-02-02T21:24:18.993Z,99902.92
2023-02-02T21:27:24.108Z,99908.19
2023-02-02T21:30:29.566Z,99906.80
2023-02-02T21:33:36.056Z,99913.27
2023-02-02T21:37:00.891Z,99911.65
2023-02-02T21:40:07.115Z,99916.23
2023-02-02T21:43:15.905Z,99911.59
2023-02-02T21:46:36.755Z,99920.52
2023-02-02T21:49:48.490Z,99917.25
2023-02-02T21:52:54.619Z,99914.05
2023-02-02T21:56:02.312Z,99917.53
2023-02-02T21:59:10.681Z,99912.44
2023-02-02T22:02:22.766Z,99918.64
2023-02-02T22:05:43.839Z,99919.63
2023-02-02T22:08:50.318Z,99916.48
2023-02-02T22:12:05.724Z,99928.47
2023-02-02T22:15:16.362Z,99929.95
2023-02-02T22:18:36.206Z,99927.48
2023-02-02T22:21:43.190Z,99924.17
2023-02-02T22:24:49.721Z,99931.35
2023-02-02T22:28:00.706Z,99939.55
2023-02-02T22:31:08.661Z,99934.65
2023-02-02T22:34:14.958Z,99939.08
2023-02-02T22:37:20.926Z,99934.79
2023-02-02T22:40:29.645Z,99941.20
2023-02-02T22:43:36.162Z,99932.59
2023-02-02T22:46:42.555Z,99936.88
2023-02-02T22:49:49.397Z,99934.95
2023-02-02T22:52:57.199Z,99933.83
2023-02-02T22:56:04.861Z,99933.08
2023-02-02T22:59:11.911Z,99936.47
2023-02-02T23:02:16.848Z,99926.47
2023-02-02T23:05:25.084Z,99932.39
2023-02-02T23:08:32.133Z,99930.28
2023-02-02T23:11:38.787Z,99936.73
2023-02-02T23:14:44.233Z,99932.53
2023-02-02T23:17:50.547Z,99934.06
2023-02-02T23:20:57.286Z,99940.45
2023-02-02T23:24:03.336Z,99944.75
2023-02-02T23:27:09.375Z,99937.42
2023-02-02T23:30:15.187Z,99937.89
2023-02-02T23:33:21.498Z,99932.75
2023-02-02T23:36:26.627Z,99937.70
2023-02-02T23:39:32.248Z,99934.78
2023-02-02T23:42:38.613Z,99931.81
2023-02-02T23:45:45.723Z,99928.97
2023-02-02T23:48:51.601Z,99928.16
2023-02-02T23:51:58.053Z,99934.14
2023-02-02T23:55:04.697Z,99936.83
2023-02-02T23:58:10.583Z,99937.72
